createdAt,value
2022-10-13T00:00:12.876Z,14.27
2022-10-13T00:02:41.212Z,12.33
2022-10-13T00:05:10.459Z,15.03
2022-10-13T00:07:38.852Z,13.57
2022-10-13T00:10:07.827Z,15.53
2022-10-13T00:12:36.873Z,13.10
2022-10-13T00:15:08.823Z,13.47
2022-10-13T00:17:40.433Z,15.00
2022-10-13T00:20:10.920Z,17.20
2022-10-13T00:22:39.715Z,21.30
2022-10-13T00:25:08.938Z,13.53
2022-10-13T00:27:37.383Z,17.33
2022-10-13T00:30:06.765Z,14.47
2022-10-13T00:32:35.166Z,17.43
2022-10-13T00:35:06.790Z,14.73
2022-10-13T00:37:35.275Z,14.73
2022-10-13T00:40:04.294Z,13.53
2022-10-13T00:42:32.699Z,18.43
2022-10-13T00:45:07.698Z,18.57
2022-10-13T00:47:40.016Z,15.07
2022-10-13T00:50:13.082Z,15.10
2022-10-13T00:52:43.416Z,18.57
2022-10-13T00:55:14.849Z,20.20
2022-10-13T00:57:46.046Z,15.67
2022-10-13T01:00:15.283Z,12.00
2022-10-13T01:02:43.760Z,16.30
2022-10-13T01:05:13.573Z,18.30
2022-10-13T01:07:42.075Z,16.37
2022-10-13T01:10:10.575Z,23.30
2022-10-13T01:12:48.279Z,16.80
2022-10-13T01:15:27.023Z,16.57
2022-10-13T01:18:09.097Z,20.00
2022-10-13T01:21:12.112Z,14.73
2022-10-13T01:24:16.469Z,15.17
2022-10-13T01:27:12.085Z,12.97
2022-10-13T01:30:10.567Z,13.17
2022-10-13T01:33:10.601Z,16.00
2022-10-13T01:35:53.237Z,16.83
2022-10-13T01:38:30.730Z,16.77
2022-10-13T01:41:06.136Z,12.83
2022-10-13T01:43:39.501Z,15.63
2022-10-13T01:46:13.881Z,15.97
2022-10-13T01:48:45.393Z,17.00
2022-10-13T01:51:17.247Z,13.83
2022-10-13T01:53:48.008Z,12.50
2022-10-13T01:56:16.730Z,21.17
2022-10-13T01:58:48.840Z,18.93
2022-10-13T02:01:37.475Z,13.90
2022-10-13T02:04:15.819Z,17.33
2022-10-13T02:06:50.100Z,15.80
2022-10-13T02:09:27.075Z,13.73
2022-10-13T02:11:59.795Z,20.10
2022-10-13T02:14:34.749Z,12.07
2022-10-13T02:17:06.146Z,19.70
2022-10-13T02:19:38.873Z,18.97
2022-10-13T02:22:09.221Z,26.60
2022-10-13T02:24:37.914Z,13.50
2022-10-13T02:27:07.540Z,15.33
2022-10-13T02:29:35.997Z,15.73
2022-10-13T02:32:05.885Z,12.53
2022-10-13T02:34:34.350Z,14.70
2022-10-13T02:37:02.792Z,16.60
2022-10-13T02:39:31.196Z,16.07
2022-10-13T02:41:59.625Z,18.23
2022-10-13T02:44:27.997Z,23.40
2022-10-13T02:46:56.356Z,12.90
2022-10-13T02:49:26.296Z,15.33
2022-10-13T02:51:55.029Z,20.37
2022-10-13T02:54:26.453Z,15.13
2022-10-13T02:56:54.815Z,14.43
2022-10-13T02:59:23.210Z,19.03
2022-10-13T03:01:51.612Z,17.90
2022-10-13T03:04:20.047Z,15.17
2022-10-13T03:06:49.776Z,15.77
2022-10-13T03:09:18.225Z,15.67
2022-10-13T03:11:46.653Z,17.90
2022-10-13T03:14:15.095Z,14.03
2022-10-13T03:16:43.496Z,14.70
2022-10-13T03:19:11.893Z,17.70
2022-10-13T03:21:40.498Z,17.93
2022-10-13T03:24:10.307Z,15.30
2022-10-13T03:26:38.837Z,18.73
2022-10-13T03:29:07.355Z,17.43
2022-10-13T03:31:35.859Z,17.50
2022-10-13T03:34:04.326Z,17.70
2022-10-13T03:36:32.696Z,20.13
2022-10-13T03:39:01.148Z,26.33
2022-10-13T03:41:31.043Z,17.70
2022-10-13T03:43:59.561Z,20.73
2022-10-13T03:46:30.776Z,19.60
2022-10-13T03:49:00.136Z,15.03
2022-10-13T03:51:30.842Z,18.30
2022-10-13T03:53:59.482Z,20.10
2022-10-13T03:56:29.929Z,18.63
2022-10-13T03:59:00.364Z,16.80
2022-10-13T04:01:30.930Z,16.40
2022-10-13T04:04:02.107Z,19.17
2022-10-13T04:06:31.658Z,23.20
2022-10-13T04:09:00.249Z,19.37
2022-10-13T04:11:30.329Z,17.40
2022-10-13T04:13:59.460Z,17.23
2022-10-13T04:16:29.620Z,15.83
2022-10-13T04:19:00.851Z,17.57
2022-10-13T04:21:30.544Z,17.07
2022-10-13T04:23:59.754Z,21.60
2022-10-13T04:26:32.028Z,12.53
2022-10-13T04:29:09.072Z,21.60
2022-10-13T04:31:38.638Z,16.47
2022-10-13T04:34:07.685Z,22.07
2022-10-13T04:36:36.412Z,17.97
2022-10-13T04:39:05.144Z,16.43
2022-10-13T04:41:36.476Z,16.37
2022-10-13T04:44:04.899Z,18.63
2022-10-13T04:46:33.283Z,18.97
2022-10-13T04:49:01.663Z,18.80
2022-10-13T04:51:34.117Z,20.93
2022-10-13T04:54:05.440Z,23.67
2022-10-13T04:56:34.431Z,17.30
2022-10-13T04:59:05.816Z,18.83
2022-10-13T05:01:35.875Z,19.17
2022-10-13T05:04:07.863Z,18.07
2022-10-13T05:06:58.774Z,22.57
2022-10-13T05:09:27.812Z,17.33
2022-10-13T05:11:56.221Z,16.43
2022-10-13T05:14:26.261Z,21.63
2022-10-13T05:16:54.647Z,17.80
2022-10-13T05:19:23.040Z,18.47
2022-10-13T05:21:51.472Z,19.27
2022-10-13T05:24:30.744Z,19.73
2022-10-13T05:26:59.261Z,22.50
2022-10-13T05:29:29.095Z,19.57
2022-10-13T05:31:57.490Z,17.07
2022-10-13T05:34:25.880Z,14.60
2022-10-13T05:36:54.331Z,15.20
2022-10-13T05:39:22.726Z,20.10
2022-10-13T05:41:51.128Z,18.20
2022-10-13T05:44:22.683Z,21.97
2022-10-13T05:46:58.437Z,20.60
2022-10-13T05:49:26.894Z,17.47
2022-10-13T05:51:58.379Z,23.10
2022-10-13T05:54:31.855Z,19.30
2022-10-13T05:57:03.687Z,21.23
2022-10-13T05:59:36.135Z,25.00
2022-10-13T06:02:08.875Z,16.50
2022-10-13T06:04:41.187Z,22.80
2022-10-13T06:07:10.368Z,31.13
2022-10-13T06:09:40.866Z,26.47
2022-10-13T06:12:10.857Z,26.13
2022-10-13T06:14:39.300Z,34.23
2022-10-13T06:17:09.662Z,25.50
2022-10-13T06:19:38.900Z,25.87
2022-10-13T06:22:09.150Z,25.53
2022-10-13T06:24:37.716Z,22.43
2022-10-13T06:27:11.131Z,19.30
2022-10-13T06:29:39.577Z,26.90
2022-10-13T06:32:09.347Z,30.00
2022-10-13T06:34:37.723Z,29.50
2022-10-13T06:37:06.747Z,24.10
2022-10-13T06:39:35.246Z,23.87
2022-10-13T06:42:05.848Z,24.07
2022-10-13T06:44:39.427Z,21.73
2022-10-13T06:47:09.280Z,18.27
2022-10-13T06:49:37.721Z,25.37
2022-10-13T06:52:06.279Z,26.33
2022-10-13T06:54:34.653Z,25.07
2022-10-13T06:57:03.172Z,23.70
2022-10-13T06:59:31.565Z,31.73
2022-10-13T07:02:00.054Z,26.10
2022-10-13T07:04:30.297Z,25.73
2022-10-13T07:07:00.491Z,28.40
2022-10-13T07:09:29.182Z,23.63
2022-10-13T07:11:57.797Z,21.90
2022-10-13T07:14:26.411Z,26.33
2022-10-13T07:16:54.982Z,25.87
2022-10-13T07:19:23.500Z,28.33
2022-10-13T07:21:53.766Z,23.00
2022-10-13T07:24:25.522Z,23.37
2022-10-13T07:26:53.922Z,17.27
2022-10-13T07:29:22.523Z,29.17
2022-10-13T07:31:51.144Z,26.73
2022-10-13T07:34:19.551Z,28.87
2022-10-13T07:36:47.954Z,27.73
2022-10-13T07:39:17.733Z,21.83
2022-10-13T07:41:50.748Z,24.00
2022-10-13T07:44:19.638Z,26.10
2022-10-13T07:46:48.073Z,24.77
2022-10-13T07:49:16.624Z,26.60
2022-10-13T07:51:45.133Z,25.43
2022-10-13T07:54:13.547Z,25.93
2022-10-13T07:56:43.293Z,30.10
2022-10-13T07:59:11.721Z,26.23
2022-10-13T08:01:40.935Z,24.80
2022-10-13T08:04:09.418Z,24.33
2022-10-13T08:06:38.029Z,23.17
2022-10-13T08:09:11.327Z,24.60
2022-10-13T08:11:40.116Z,29.93
2022-10-13T08:14:13.021Z,24.20
2022-10-13T08:16:48.532Z,29.20
2022-10-13T08:19:21.933Z,26.83
2022-10-13T08:21:59.489Z,33.93
2022-10-13T08:24:28.748Z,25.10
2022-10-13T08:26:57.155Z,21.97
2022-10-13T08:29:27.079Z,28.60
2022-10-13T08:31:56.836Z,29.13
2022-10-13T08:34:25.824Z,21.70
2022-10-13T08:36:56.341Z,22.07
2022-10-13T08:39:25.722Z,25.80
2022-10-13T08:41:55.093Z,24.40
2022-10-13T08:47:31.608Z,21.53
2022-10-13T08:50:05.022Z,26.30
2022-10-13T08:52:47.894Z,23.33
2022-10-13T08:55:25.394Z,22.13
2022-10-13T08:57:54.385Z,21.23
2022-10-13T09:00:30.501Z,26.43
2022-10-13T09:03:17.051Z,19.50
2022-10-13T09:05:54.770Z,16.23
2022-10-13T09:08:26.104Z,20.50
2022-10-13T09:10:54.565Z,19.10
2022-10-13T09:13:27.107Z,19.07
2022-10-13T09:15:58.895Z,15.90
2022-10-13T09:18:30.698Z,14.77
2022-10-13T09:21:21.142Z,20.97
2022-10-13T09:23:51.495Z,19.83
2022-10-13T09:26:23.184Z,22.87
2022-10-13T09:28:52.856Z,20.50
2022-10-13T09:31:26.681Z,19.93
2022-10-13T09:34:02.641Z,17.77
2022-10-13T09:36:31.786Z,23.13
2022-10-13T09:39:09.963Z,15.67
2022-10-13T09:41:41.574Z,16.90
2022-10-13T09:44:14.248Z,20.63
2022-10-13T09:46:51.404Z,23.60
2022-10-13T09:49:32.212Z,13.13
2022-10-13T09:52:03.636Z,15.87
2022-10-13T09:54:45.771Z,15.53
2022-10-13T09:57:25.417Z,14.20
2022-10-13T09:59:59.482Z,18.70
2022-10-13T10:02:36.384Z,22.93
2022-10-13T10:05:15.503Z,14.73
2022-10-13T10:07:44.507Z,16.67
2022-10-13T10:10:33.109Z,13.87
2022-10-13T10:13:04.113Z,16.30
2022-10-13T10:15:44.212Z,18.27
2022-10-13T10:18:19.253Z,18.80
2022-10-13T10:20:59.149Z,17.80
2022-10-13T10:23:40.387Z,17.30
2022-10-13T10:26:22.135Z,17.47
2022-10-13T10:29:08.845Z,22.57
2022-10-13T10:31:49.785Z,19.07
2022-10-13T10:34:37.513Z,19.57
2022-10-13T10:37:22.759Z,18.23
2022-10-13T10:40:04.631Z,14.40
2022-10-13T10:42:52.692Z,20.07
2022-10-13T10:45:25.836Z,14.70
2022-10-13T10:47:57.673Z,14.17
2022-10-13T10:50:31.850Z,14.30
2022-10-13T10:53:05.831Z,25.47
2022-10-13T10:55:40.591Z,22.40
2022-10-13T10:58:21.604Z,18.83
2022-10-13T11:00:56.633Z,21.70
2022-10-13T11:03:38.456Z,20.10
2022-10-13T11:06:26.164Z,15.23
2022-10-13T11:08:55.608Z,19.33
2022-10-13T11:11:45.129Z,23.43
2022-10-13T11:14:31.875Z,15.90
2022-10-13T11:17:20.214Z,17.07
2022-10-13T11:19:49.964Z,20.43
2022-10-13T11:22:22.282Z,18.73
2022-10-13T11:24:57.151Z,16.23
2022-10-13T11:27:29.097Z,17.37
2022-10-13T11:29:59.910Z,20.30
2022-10-13T11:32:55.375Z,21.80
2022-10-13T11:35:26.833Z,20.33
2022-10-13T11:38:30.158Z,20.17
2022-10-13T11:41:15.680Z,17.13
2022-10-13T11:43:54.255Z,22.67
2022-10-13T11:46:47.288Z,15.63
2022-10-13T11:49:32.332Z,23.10
2022-10-13T11:52:22.526Z,16.57
2022-10-13T11:54:56.506Z,20.83
2022-10-13T11:57:26.297Z,16.40
2022-10-13T11:59:56.823Z,21.90
2022-10-13T12:02:30.946Z,22.90
2022-10-13T12:05:05.035Z,22.47
2022-10-13T12:07:42.207Z,17.60
2022-10-13T12:10:21.588Z,23.30
2022-10-13T12:12:51.162Z,16.77
2022-10-13T12:15:31.812Z,19.07
2022-10-13T12:18:00.592Z,18.67
2022-10-13T12:20:33.745Z,18.83
2022-10-13T12:23:02.152Z,16.03
2022-10-13T12:25:33.619Z,19.67
2022-10-13T12:28:03.089Z,17.97
2022-10-13T12:30:36.215Z,16.33
2022-10-13T12:33:18.696Z,20.63
2022-10-13T12:35:47.107Z,19.83
2022-10-13T12:38:20.444Z,14.87
2022-10-13T12:40:52.041Z,15.57
2022-10-13T12:43:26.116Z,20.33
2022-10-13T12:45:54.799Z,14.80
2022-10-13T12:48:34.366Z,18.30
2022-10-13T12:51:26.372Z,21.03
2022-10-13T12:53:55.502Z,24.03
2022-10-13T12:56:30.440Z,17.67
2022-10-13T12:58:59.812Z,22.50
2022-10-13T13:01:33.379Z,15.67
2022-10-13T13:04:03.640Z,20.17
2022-10-13T13:06:37.910Z,29.50
2022-10-13T13:09:25.033Z,23.97
2022-10-13T13:12:22.715Z,14.97
2022-10-13T13:14:54.800Z,20.97
2022-10-13T13:17:56.663Z,15.67
2022-10-13T13:20:25.958Z,17.63
2022-10-13T13:22:54.703Z,24.70
2022-10-13T13:25:23.412Z,22.10
2022-10-13T13:27:53.357Z,23.30
2022-10-13T13:30:24.003Z,20.27
2022-10-13T13:32:52.576Z,26.23
2022-10-13T13:35:21.009Z,19.87
2022-10-13T13:37:51.031Z,24.20
2022-10-13T13:40:21.264Z,19.30
2022-10-13T13:42:49.980Z,27.57
2022-10-13T13:45:21.894Z,22.77
2022-10-13T13:47:51.390Z,22.23
2022-10-13T13:50:23.459Z,30.93
2022-10-13T13:52:58.150Z,20.03
2022-10-13T13:55:27.047Z,24.40
2022-10-13T13:57:55.460Z,21.70
2022-10-13T14:00:25.514Z,18.97
2022-10-13T14:02:56.630Z,21.77
2022-10-13T14:05:25.212Z,20.40
2022-10-13T14:07:55.948Z,34.03
2022-10-13T14:10:24.984Z,20.40
2022-10-13T14:12:53.823Z,19.50
2022-10-13T14:15:25.851Z,23.63
2022-10-13T14:17:58.778Z,19.93
2022-10-13T14:20:27.171Z,23.30
2022-10-13T14:22:55.601Z,19.00
2022-10-13T14:25:24.392Z,15.20
2022-10-13T14:27:52.924Z,21.00
2022-10-13T14:30:21.335Z,20.77
2022-10-13T14:32:49.766Z,18.87
2022-10-13T14:35:19.584Z,15.43
2022-10-13T14:37:47.955Z,17.57
2022-10-13T14:40:16.606Z,27.20
2022-10-13T14:42:45.013Z,21.27
2022-10-13T14:45:17.839Z,16.43
2022-10-13T14:47:46.235Z,21.77
2022-10-13T14:50:14.716Z,16.47
2022-10-13T14:52:44.456Z,19.37
2022-10-13T14:55:12.884Z,20.93
2022-10-13T14:57:42.312Z,27.83
2022-10-13T15:00:13.005Z,16.50
2022-10-13T15:02:42.398Z,16.00
2022-10-13T15:05:11.028Z,19.07
2022-10-13T15:07:41.192Z,25.83
2022-10-13T15:10:11.503Z,23.63
2022-10-13T15:12:39.922Z,20.33
2022-10-13T15:15:09.132Z,24.10
2022-10-13T15:17:37.935Z,20.03
2022-10-13T15:20:07.514Z,19.00
2022-10-13T15:22:35.929Z,23.30
2022-10-13T15:25:07.926Z,29.07
2022-10-13T15:27:41.901Z,23.03
2022-10-13T15:30:11.943Z,30.90
2022-10-13T15:32:40.447Z,19.93
2022-10-13T15:35:09.601Z,23.73
2022-10-13T15:37:42.395Z,19.10
2022-10-13T15:40:12.002Z,20.17
2022-10-13T15:42:41.788Z,24.30
2022-10-13T15:45:11.803Z,19.63
2022-10-13T15:47:40.578Z,19.27
2022-10-13T15:50:10.125Z,25.30
2022-10-13T15:52:39.831Z,22.83
2022-10-13T15:55:09.507Z,23.83
2022-10-13T15:57:38.290Z,22.23
2022-10-13T16:00:10.227Z,20.33
2022-10-13T16:02:43.598Z,22.70
2022-10-13T16:05:13.799Z,18.73
2022-10-13T16:07:42.778Z,17.57
2022-10-13T16:10:13.352Z,25.87
2022-10-13T16:12:45.624Z,21.10
2022-10-13T16:15:18.927Z,19.73
2022-10-13T16:17:47.350Z,19.50
2022-10-13T16:20:15.800Z,20.63
2022-10-13T16:22:44.278Z,27.25
2022-10-13T16:25:13.012Z,24.03
2022-10-13T16:27:44.289Z,17.20
2022-10-13T16:30:13.865Z,20.97
2022-10-13T16:32:43.648Z,20.23
2022-10-13T16:35:12.176Z,20.93
2022-10-13T16:37:40.611Z,25.10
2022-10-13T16:40:09.951Z,22.73
2022-10-13T16:42:39.635Z,23.83
2022-10-13T16:45:08.920Z,22.07
2022-10-13T16:47:37.343Z,19.40
2022-10-13T16:50:09.727Z,21.83
2022-10-13T16:52:38.682Z,24.80
2022-10-13T16:55:08.342Z,22.97
2022-10-13T16:57:36.790Z,25.90
2022-10-13T17:00:05.967Z,26.30
2022-10-13T17:02:35.447Z,21.73
2022-10-13T17:05:04.031Z,25.20
2022-10-13T17:07:33.847Z,23.20
2022-10-13T17:10:04.060Z,25.73
2022-10-13T17:12:32.583Z,25.87
2022-10-13T17:15:01.010Z,29.07
2022-10-13T17:17:29.632Z,25.90
2022-10-13T17:19:58.134Z,27.77
2022-10-13T17:22:26.565Z,29.97
2022-10-13T17:24:56.378Z,24.37
2022-10-13T17:27:25.156Z,25.13
2022-10-13T17:29:54.315Z,26.00
2022-10-13T17:32:22.799Z,26.80
2022-10-13T17:34:51.213Z,30.73
2022-10-13T17:37:19.881Z,27.87
2022-10-13T17:39:48.611Z,28.13
2022-10-13T17:42:18.413Z,30.33
2022-10-13T17:44:49.716Z,30.20
2022-10-13T17:47:18.402Z,26.27
2022-10-13T17:49:47.071Z,28.97
2022-10-13T17:52:17.119Z,38.97
2022-10-13T17:54:45.747Z,24.83
2022-10-13T17:57:14.131Z,21.80
2022-10-13T17:59:43.912Z,22.40
2022-10-13T18:02:12.419Z,29.80
2022-10-13T18:04:40.992Z,22.17
2022-10-13T18:07:09.552Z,23.93
2022-10-13T18:09:38.073Z,25.30
2022-10-13T18:12:06.731Z,23.73
2022-10-13T18:14:35.165Z,21.73
2022-10-13T18:17:04.946Z,19.93
2022-10-13T18:19:37.826Z,27.47
2022-10-13T18:22:08.500Z,23.90
2022-10-13T18:24:36.912Z,27.67
2022-10-13T18:27:05.520Z,34.93
2022-10-13T18:29:37.081Z,25.17
2022-10-13T18:32:06.835Z,21.80
2022-10-13T18:34:35.455Z,22.20
2022-10-13T18:37:05.528Z,22.70
2022-10-13T18:39:34.393Z,26.17
2022-10-13T18:42:02.819Z,23.83
2022-10-13T18:44:37.625Z,20.43
2022-10-13T18:47:07.457Z,24.17
2022-10-13T18:49:35.859Z,17.87
2022-10-13T18:52:04.598Z,18.23
2022-10-13T18:54:33.377Z,21.43
2022-10-13T18:57:01.847Z,22.10
2022-10-13T18:59:30.307Z,21.87
2022-10-13T19:01:58.768Z,19.07
2022-10-13T19:04:29.009Z,17.63
2022-10-13T19:06:57.400Z,20.50
2022-10-13T19:09:26.311Z,17.47
2022-10-13T19:11:56.486Z,14.93
2022-10-13T19:14:25.725Z,15.57
2022-10-13T19:16:59.390Z,13.47
2022-10-13T19:19:32.631Z,13.10
2022-10-13T19:22:02.189Z,14.23
2022-10-13T19:24:30.624Z,12.00
2022-10-13T19:26:58.999Z,14.00
2022-10-13T19:29:27.435Z,12.17
2022-10-13T19:31:55.800Z,11.83
2022-10-13T19:34:24.223Z,13.33
2022-10-13T19:36:59.077Z,11.83
2022-10-13T19:39:27.653Z,14.57
2022-10-13T19:41:58.498Z,11.03
2022-10-13T19:44:27.010Z,17.70
2022-10-13T19:46:55.507Z,13.33
2022-10-13T19:49:26.419Z,18.47
2022-10-13T19:51:56.804Z,18.20
2022-10-13T19:54:27.927Z,17.87
2022-10-13T19:56:58.631Z,15.23
2022-10-13T19:59:27.853Z,23.90
2022-10-13T20:01:56.704Z,15.67
2022-10-13T20:04:25.105Z,16.60
2022-10-13T20:06:53.743Z,15.97
2022-10-13T20:09:23.960Z,25.23
2022-10-13T20:11:52.810Z,25.13
2022-10-13T20:14:21.334Z,24.47
2022-10-13T20:16:49.856Z,28.93
2022-10-13T20:19:19.458Z,23.40
2022-10-13T20:21:51.506Z,19.13
2022-10-13T20:24:20.456Z,19.83
2022-10-13T20:26:50.304Z,29.20
2022-10-13T20:29:23.593Z,21.07
2022-10-13T20:31:52.028Z,30.70
2022-10-13T20:34:20.452Z,31.23
2022-10-13T20:36:51.236Z,30.40
2022-10-13T20:39:20.712Z,39.60
2022-10-13T20:41:50.605Z,32.37
2022-10-13T20:44:19.209Z,37.97
2022-10-13T20:46:47.636Z,46.97
2022-10-13T20:49:16.018Z,48.53
2022-10-13T20:51:45.267Z,60.47
2022-10-13T20:54:15.243Z,47.27
2022-10-13T20:56:44.299Z,46.33
2022-10-13T20:59:15.469Z,52.67
2022-10-13T21:01:44.163Z,55.60
2022-10-13T21:04:12.678Z,53.10
2022-10-13T21:06:41.879Z,53.83
2022-10-13T21:09:11.184Z,59.87
2022-10-13T21:11:41.958Z,42.90
2022-10-13T21:14:10.480Z,49.73
2022-10-13T21:16:40.641Z,50.20
2022-10-13T21:19:13.908Z,36.77
2022-10-13T21:21:42.350Z,41.90
2022-10-13T21:24:11.540Z,46.93
2022-10-13T21:26:41.777Z,51.90
2022-10-13T21:29:15.024Z,58.97
2022-10-13T21:31:44.820Z,62.27
2022-10-13T21:34:13.712Z,51.90
2022-10-13T21:36:44.433Z,59.83
2022-10-13T21:39:14.849Z,56.63
2022-10-13T21:41:43.369Z,53.90
2022-10-13T21:44:14.366Z,58.10
2022-10-13T21:46:44.296Z,61.30
2022-10-13T21:49:12.688Z,70.23
2022-10-13T21:51:41.414Z,65.77
2022-10-13T21:54:12.171Z,72.87
2022-10-13T21:56:41.693Z,67.00
2022-10-13T21:59:12.215Z,157.53
2022-10-13T22:01:41.118Z,111.10
2022-10-13T22:04:17.108Z,130.50
2022-10-13T22:06:45.604Z,220.60
2022-10-13T22:09:14.408Z,213.50
2022-10-13T22:11:44.087Z,189.77
2022-10-13T22:14:12.997Z,140.87
2022-10-13T22:16:43.916Z,146.47
2022-10-13T22:19:12.712Z,178.00
2022-10-13T22:21:43.901Z,334.93
2022-10-13T22:24:14.197Z,176.23
2022-10-13T22:26:43.681Z,151.23
2022-10-13T22:29:15.487Z,362.53
2022-10-13T22:31:44.944Z,310.30
2022-10-13T22:34:15.373Z,315.00
2022-10-13T22:36:45.551Z,158.57
2022-10-13T22:39:14.969Z,205.07
2022-10-13T22:41:43.773Z,337.60
2022-10-13T22:44:12.631Z,153.60
2022-10-13T22:46:41.351Z,103.00
2022-10-13T22:49:14.712Z,142.73
2022-10-13T22:51:43.141Z,496.67
2022-10-13T22:54:12.985Z,273.50
2022-10-13T22:56:41.796Z,270.53
2022-10-13T22:59:12.221Z,324.00
2022-10-13T23:01:40.683Z,362.00
2022-10-13T23:04:09.121Z,449.50
2022-10-13T23:06:37.850Z,416.40
2022-10-13T23:09:09.483Z,397.33
2022-10-13T23:11:39.385Z,278.63
2022-10-13T23:14:09.749Z,224.87
2022-10-13T23:16:38.153Z,542.97
2022-10-13T23:19:06.569Z,446.43
2022-10-13T23:21:35.039Z,367.80
2022-10-13T23:24:05.885Z,221.67
2022-10-13T23:26:35.743Z,354.03
2022-10-13T23:29:05.988Z,568.87
2022-10-13T23:31:34.715Z,282.20
2022-10-13T23:34:03.125Z,452.73
2022-10-13T23:36:33.320Z,330.07
2022-10-13T23:39:04.412Z,356.90
2022-10-13T23:41:33.395Z,394.80
2022-10-13T23:44:02.183Z,430.97
2022-10-13T23:46:32.171Z,307.73
2022-10-13T23:49:00.628Z,281.60
2022-10-13T23:51:29.202Z,247.33
2022-10-13T23:53:57.860Z,239.13
2022-10-13T23:56:26.314Z,131.83
2022-10-13T23:58:54.783Z,237.77
